Time;durP1;ratioP1;P1;durP2;ratioP2;P2;SDS_P1;SDS_P2;PMS_P1;PMS_P2;Temp;Humidity;BMP_temperature;BMP_pressure;BME280_temperature;BME280_humidity;BME280_pressure;Samples;Min_cycle;Max_cycle;Signal;HPM_P1;HPM_P2
2022/01/30 00:01:35;;;;;;;26.20;15.52;;;17.40;54.40;;;;;;5006593;28;98555;-73
2022/01/30 00:04:00;;;;;;;33.33;15.27;;;17.30;54.30;;;;;;5005795;28;98705;-73
2022/01/30 00:06:26;;;;;;;30.13;15.30;;;17.30;54.40;;;;;;5006708;28;98545;-73
2022/01/30 00:08:52;;;;;;;27.52;14.40;;;17.30;54.30;;;;;;5005290;28;99901;-73
2022/01/30 00:11:23;;;;;;;28.05;14.95;;;17.30;54.70;;;;;;5006236;28;99944;-73
2022/01/30 00:13:49;;;;;;;27.27;13.93;;;17.30;54.20;;;;;;5008383;28;98636;-73
2022/01/30 00:16:17;;;;;;;29.30;14.57;;;17.30;54.20;;;;;;5010033;28;98678;-73
2022/01/30 00:19:01;;;;;;;29.25;14.20;;;17.30;54.20;;;;;;5010164;28;99110;-73
2022/01/30 00:24:13;;;;;;;26.70;13.57;;;17.30;54.10;;;;;;5009972;28;98936;-73
2022/01/30 00:26:40;;;;;;;25.67;13.70;;;17.30;54.00;;;;;;5009466;28;98157;-73
2022/01/30 00:29:06;;;;;;;25.55;13.88;;;17.30;54.10;;;;;;5008225;28;101054;-73
2022/01/30 00:31:33;;;;;;;24.67;13.27;;;17.20;53.90;;;;;;5008244;28;99022;-72
2022/01/30 00:33:59;;;;;;;26.00;12.73;;;17.20;53.90;;;;;;5008188;28;99744;-73
2022/01/30 00:36:25;;;;;;;24.98;13.10;;;17.20;53.90;;;;;;4990613;28;98745;-73
2022/01/30 00:38:51;;;;;;;25.27;12.77;;;17.20;53.90;;;;;;5008026;28;99049;-73
2022/01/30 00:41:17;;;;;;;23.23;12.95;;;17.20;53.90;;;;;;5008061;28;99941;-73
2022/01/30 00:43:43;;;;;;;22.88;12.45;;;17.20;53.90;;;;;;5008356;28;98931;-73
2022/01/30 00:46:09;;;;;;;23.83;12.18;;;17.20;54.90;;;;;;4953003;28;1107123;-73
2022/01/30 00:48:35;;;;;;;25.15;12.75;;;17.10;53.80;;;;;;5009708;28;99300;-73
2022/01/30 00:51:01;;;;;;;21.65;11.85;;;17.20;53.80;;;;;;5009766;28;98973;-73
2022/01/30 00:53:26;;;;;;;22.40;11.52;;;17.20;53.80;;;;;;5009789;28;98675;-73
2022/01/30 00:55:52;;;;;;;22.60;11.70;;;17.20;53.70;;;;;;5008705;28;98649;-73
2022/01/30 00:58:18;;;;;;;23.50;11.90;;;17.20;53.80;;;;;;5008395;28;100821;-73
2022/01/30 01:00:45;;;;;;;22.15;11.77;;;17.10;53.70;;;;;;5010268;28;103746;-73
2022/01/30 01:03:11;;;;;;;23.83;11.20;;;17.10;53.60;;;;;;5009657;28;98822;-73
2022/01/30 01:05:38;;;;;;;21.25;11.40;;;17.10;53.50;;;;;;5009844;28;98906;-73
2022/01/30 01:08:28;;;;;;;19.30;10.63;;;17.10;53.60;;;;;;5008838;28;99484;-73
2022/01/30 01:11:02;;;;;;;21.65;11.30;;;17.10;53.60;;;;;;5009656;28;98875;-73
2022/01/30 01:13:53;;;;;;;;;;;17.10;53.60;;;;;;5009483;28;99228;-73
2022/01/30 01:24:27;;;;;;;18.73;10.10;;;17.00;53.60;;;;;;5007436;28;99366;-73
2022/01/30 01:26:53;;;;;;;19.83;10.23;;;17.00;53.50;;;;;;5010266;28;98898;-73
2022/01/30 01:29:19;;;;;;;18.25;10.05;;;17.00;53.40;;;;;;5009070;28;104010;-73
2022/01/30 01:31:44;;;;;;;18.00;9.90;;;17.00;53.40;;;;;;5009700;28;99542;-73
2022/01/30 01:36:35;;;;;;;19.55;9.48;;;17.00;53.40;;;;;;5009806;28;98811;-73
2022/01/30 01:39:02;;;;;;;19.05;9.15;;;17.00;53.40;;;;;;5008788;28;99089;-73
2022/01/30 01:41:29;;;;;;;20.50;9.95;;;17.00;53.30;;;;;;5009807;28;99835;-73
2022/01/30 01:43:55;;;;;;;20.67;9.95;;;17.00;53.30;;;;;;5008935;28;98940;-73
2022/01/30 01:46:25;;;;;;;19.15;8.90;;;17.00;53.20;;;;;;5009748;28;99204;-73
2022/01/30 01:48:53;;;;;;;16.70;9.20;;;17.00;53.30;;;;;;5008771;28;101657;-73
2022/01/30 01:51:26;;;;;;;15.15;8.20;;;16.90;53.20;;;;;;5010377;28;100548;-73
2022/01/30 01:53:57;;;;;;;17.85;9.30;;;17.00;53.10;;;;;;5010538;28;98516;-73
2022/01/30 01:56:23;;;;;;;14.57;8.45;;;17.00;53.20;;;;;;5010559;28;99054;-73
2022/01/30 01:58:55;;;;;;;17.10;8.50;;;16.90;53.10;;;;;;5011878;28;99608;-72
2022/01/30 02:01:23;;;;;;;17.98;8.65;;;16.90;53.60;;;;;;5013636;28;98981;-72
2022/01/30 02:03:48;;;;;;;17.98;8.38;;;16.90;53.10;;;;;;5010301;28;98651;-73
2022/01/30 02:06:17;;;;;;;17.63;8.70;;;16.90;53.00;;;;;;5010828;28;97977;-73
2022/01/30 02:08:53;;;;;;;16.60;8.48;;;16.90;53.00;;;;;;5009794;28;99490;-73
2022/01/30 02:11:33;;;;;;;17.05;8.13;;;16.90;53.00;;;;;;5009159;28;100050;-73
2022/01/30 02:27:19;;;;;;;15.57;7.70;;;16.90;53.00;;;;;;5009163;28;99455;-72
2022/01/30 02:29:45;;;;;;;16.20;7.40;;;16.80;52.90;;;;;;4990148;28;100794;-73
2022/01/30 02:32:10;;;;;;;18.05;7.53;;;16.80;52.90;;;;;;5008347;28;99155;-72
2022/01/30 02:34:36;;;;;;;14.25;7.22;;;16.80;52.90;;;;;;5007718;28;98582;-73
2022/01/30 02:37:03;;;;;;;14.38;7.20;;;16.80;52.90;;;;;;5007459;28;99146;-73
2022/01/30 02:39:29;;;;;;;16.50;7.55;;;16.90;52.90;;;;;;5008508;28;100266;-73
2022/01/30 02:41:55;;;;;;;13.55;7.03;;;16.80;53.00;;;;;;5008468;28;99471;-73
2022/01/30 02:44:40;;;;;;;14.95;7.00;;;16.80;52.90;;;;;;5007429;28;99232;-73
2022/01/30 02:47:09;;;;;;;15.75;7.32;;;16.80;52.90;;;;;;5008145;28;98543;-73
2022/01/30 02:50:38;;;;;;;15.40;7.50;;;16.80;52.90;;;;;;5008279;28;100211;-72
2022/01/30 02:52:31;;;;;;;16.88;7.00;;;16.80;52.90;;;;;;4989919;28;99591;-73
2022/01/30 02:54:56;;;;;;;13.23;6.50;;;16.80;52.90;;;;;;5008106;28;99019;-73
2022/01/30 02:57:22;;;;;;;15.65;6.72;;;16.80;52.90;;;;;;5007216;28;97913;-72
2022/01/30 02:59:48;;;;;;;14.50;6.80;;;16.80;52.80;;;;;;5007969;28;98976;-73
2022/01/30 03:02:13;;;;;;;12.85;6.80;;;16.70;52.80;;;;;;5007885;28;98993;-73
2022/01/30 03:04:40;;;;;;;14.10;6.78;;;16.80;52.80;;;;;;5008204;28;99336;-73
2022/01/30 03:07:06;;;;;;;12.65;6.80;;;16.80;52.80;;;;;;5008403;28;98715;-73
2022/01/30 03:09:31;;;;;;;11.70;6.22;;;16.80;52.80;;;;;;5008370;28;99110;-73
2022/01/30 03:11:57;;;;;;;13.10;6.05;;;16.80;52.70;;;;;;5007294;28;102700;-73
2022/01/30 03:14:22;;;;;;;14.18;6.47;;;16.70;52.60;;;;;;5008142;28;98876;-73
2022/01/30 03:16:48;;;;;;;13.43;6.00;;;16.70;52.70;;;;;;5008320;28;99463;-73
2022/01/30 03:19:14;;;;;;;12.90;5.95;;;16.70;52.60;;;;;;5008464;28;99092;-73
2022/01/30 03:21:39;;;;;;;12.10;5.95;;;16.70;52.60;;;;;;5008392;28;102884;-73
2022/01/30 03:24:05;;;;;;;13.88;5.75;;;16.70;52.60;;;;;;5008833;28;98761;-73
2022/01/30 03:26:37;;;;;;;12.82;5.80;;;16.70;52.60;;;;;;5008529;28;98721;-72
2022/01/30 03:29:06;;;;;;;11.13;6.13;;;16.70;52.60;;;;;;5007650;28;100393;-73
2022/01/30 03:31:39;;;;;;;14.52;6.00;;;16.70;52.50;;;;;;5007277;28;101338;-73
2022/01/30 03:34:10;;;;;;;13.30;5.72;;;16.70;52.50;;;;;;5008863;28;98984;-73
2022/01/30 03:36:37;;;;;;;13.77;5.80;;;16.70;52.40;;;;;;5008897;28;98992;-73
2022/01/30 03:39:04;;;;;;;11.85;5.82;;;16.70;52.50;;;;;;5007045;28;99355;-73
2022/01/30 03:41:30;;;;;;;11.82;5.70;;;16.70;52.40;;;;;;5011697;28;98817;-73
2022/01/30 03:43:56;;;;;;;10.93;5.28;;;16.60;52.40;;;;;;5011043;28;98964;-73
2022/01/30 03:46:23;;;;;;;13.07;5.30;;;16.60;52.30;;;;;;5009121;28;98159;-73
2022/01/30 03:48:49;;;;;;;11.32;5.50;;;16.60;52.30;;;;;;5010184;28;99306;-74
2022/01/30 03:51:14;;;;;;;11.32;5.35;;;16.60;52.30;;;;;;5011724;28;99366;-73
2022/01/30 03:53:42;;;;;;;11.60;5.35;;;16.60;52.30;;;;;;5011438;28;99906;-73
2022/01/30 03:56:09;;;;;;;11.70;5.07;;;16.60;52.30;;;;;;5011373;28;98829;-73
2022/01/30 03:58:35;;;;;;;9.20;5.00;;;16.60;52.30;;;;;;5010867;28;99920;-73
2022/01/30 05:43:31;;;;;;;10.02;3.78;;;17.90;49.10;;;;;;5272286;22;102786;-65
2022/01/30 05:46:10;;;;;;;11.68;3.97;;;17.80;49.10;;;;;;4967421;28;98754;-67
2022/01/30 05:48:36;;;;;;;7.47;3.45;;;17.80;49.00;;;;;;4967733;28;100546;-67
2022/01/30 05:51:03;;;;;;;9.90;3.78;;;17.80;49.00;;;;;;4967265;28;99915;-66
2022/01/30 05:53:29;;;;;;;10.43;4.00;;;17.80;49.00;;;;;;4968381;28;99035;-65
2022/01/30 05:55:55;;;;;;;10.68;3.83;;;17.80;49.00;;;;;;4968649;28;98679;-66
2022/01/30 05:58:21;;;;;;;9.18;3.45;;;17.80;49.00;;;;;;4967601;28;100304;-65
2022/01/30 06:00:46;;;;;;;9.30;3.42;;;17.80;49.00;;;;;;4967048;28;106676;-65
2022/01/30 06:03:12;;;;;;;8.50;4.03;;;17.90;49.00;;;;;;4967991;28;98919;-65
2022/01/30 06:05:39;;;;;;;12.13;4.30;;;17.90;50.00;;;;;;4968243;28;98579;-66
2022/01/30 06:08:26;;;;;;;12.13;3.70;;;17.80;48.90;;;;;;4966141;28;102087;-64
2022/01/30 06:10:52;;;;;;;9.35;3.85;;;17.90;49.20;;;;;;4966380;28;100960;-66
2022/01/30 06:13:17;;;;;;;9.90;4.18;;;17.90;49.60;;;;;;4968007;28;98922;-65
2022/01/30 06:15:43;;;;;;;8.77;3.72;;;17.90;49.60;;;;;;4968341;28;98860;-64
2022/01/30 06:18:09;;;;;;;10.38;3.53;;;17.90;49.40;;;;;;4958948;28;99781;-65
2022/01/30 06:20:34;;;;;;;9.77;3.75;;;17.90;49.30;;;;;;4967546;28;100064;-65
2022/01/30 06:23:00;;;;;;;12.73;4.00;;;18.00;49.60;;;;;;4967501;28;98639;-64
2022/01/30 06:25:26;;;;;;;9.73;3.60;;;18.00;49.40;;;;;;4968484;28;97976;-65
2022/01/30 06:27:51;;;;;;;11.25;3.28;;;18.00;49.30;;;;;;4948646;28;99623;-66
2022/01/30 06:30:21;;;;;;;9.63;3.67;;;18.00;49.30;;;;;;4966876;28;99002;-68
2022/01/30 06:32:48;;;;;;;11.02;3.80;;;18.00;49.30;;;;;;4966475;28;99362;-64
2022/01/30 06:35:14;;;;;;;10.52;4.20;;;18.00;49.30;;;;;;4966633;28;99029;-65
2022/01/30 06:37:40;;;;;;;9.00;3.88;;;18.10;49.40;;;;;;4966739;28;100744;-66
2022/01/30 06:40:06;;;;;;;9.93;3.60;;;18.00;49.40;;;;;;4965719;28;98765;-66
2022/01/30 06:42:33;;;;;;;10.10;3.72;;;18.00;49.40;;;;;;4972345;28;99702;-68
2022/01/30 06:44:58;;;;;;;12.18;3.85;;;18.00;49.50;;;;;;4985870;28;98806;-65
2022/01/30 06:47:24;;;;;;;9.68;3.70;;;18.00;49.50;;;;;;4986361;28;100141;-66
2022/01/30 06:49:50;;;;;;;10.05;3.70;;;18.00;49.60;;;;;;4986475;28;100089;-65
2022/01/30 06:52:15;;;;;;;10.35;3.75;;;17.90;49.50;;;;;;4985291;28;99345;-66
2022/01/30 06:54:41;;;;;;;11.93;3.88;;;17.90;49.50;;;;;;4987447;28;98773;-65
2022/01/30 06:57:07;;;;;;;9.88;3.70;;;17.90;49.50;;;;;;4985893;28;99827;-65
2022/01/30 06:59:33;;;;;;;8.60;3.35;;;17.90;49.60;;;;;;4985858;28;100677;-66
2022/01/30 07:01:59;;;;;;;11.55;3.90;;;17.90;49.60;;;;;;4987083;28;98645;-68
2022/01/30 07:04:24;;;;;;;9.52;3.55;;;17.80;49.60;;;;;;4988713;28;98777;-67
2022/01/30 07:06:50;;;;;;;13.88;4.15;;;17.80;49.90;;;;;;4986948;28;99637;-66
2022/01/30 07:09:16;;;;;;;7.30;3.25;;;17.80;49.80;;;;;;4986759;28;98842;-66
2022/01/30 07:11:42;;;;;;;12.27;3.58;;;17.70;49.80;;;;;;4986880;28;98588;-69
2022/01/30 07:14:08;;;;;;;9.00;3.53;;;17.70;50.20;;;;;;4987537;28;98492;-66
2022/01/30 07:16:33;;;;;;;11.05;3.55;;;17.70;50.40;;;;;;4986072;28;99250;-66
2022/01/30 07:18:59;;;;;;;10.85;3.75;;;17.70;50.20;;;;;;4985578;28;98731;-66
2022/01/30 07:21:25;;;;;;;11.48;3.90;;;17.70;50.40;;;;;;4986229;28;99745;-66
2022/01/30 07:23:52;;;;;;;13.13;3.55;;;17.60;50.50;;;;;;4989546;28;99114;-64
2022/01/30 07:26:18;;;;;;;10.45;3.70;;;17.60;50.30;;;;;;4989203;28;100606;-64
2022/01/30 07:28:44;;;;;;;10.63;3.67;;;17.60;50.60;;;;;;4989077;28;99802;-64
2022/01/30 07:52:54;;;;;;;14.18;3.70;;;17.40;51.30;;;;;;3568834;22;99745;-72
2022/01/30 07:55:20;;;;;;;11.93;3.47;;;17.30;52.30;;;;;;4951899;28;98573;-72
2022/01/30 07:57:46;;;;;;;16.98;3.97;;;17.30;51.40;;;;;;4951012;28;99396;-72
2022/01/30 08:00:13;;;;;;;14.18;4.15;;;17.30;51.50;;;;;;4950091;28;99036;-73
2022/01/30 08:02:39;;;;;;;12.90;3.88;;;17.30;51.50;;;;;;4951263;28;98953;-72
2022/01/30 08:05:06;;;;;;;13.30;4.07;;;17.30;51.60;;;;;;4952310;28;97912;-73
2022/01/30 08:07:32;;;;;;;16.70;4.10;;;17.30;51.70;;;;;;4951281;28;100526;-73
2022/01/30 08:09:58;;;;;;;15.15;3.33;;;17.30;51.80;;;;;;4950604;28;99987;-72
2022/01/30 08:12:23;;;;;;;15.60;4.28;;;17.20;51.80;;;;;;4949710;28;99858;-72
2022/01/30 08:14:49;;;;;;;16.60;3.83;;;17.20;52.00;;;;;;4952101;28;99099;-73
2022/01/30 08:17:21;;;;;;;13.73;4.28;;;17.20;52.10;;;;;;4950458;28;100027;-73
2022/01/30 08:19:47;;;;;;;17.38;4.18;;;17.10;52.10;;;;;;4950348;28;99978;-72
2022/01/30 08:22:13;;;;;;;13.93;4.07;;;17.10;52.20;;;;;;4949962;28;98799;-72
2022/01/30 08:24:39;;;;;;;15.88;4.40;;;17.10;52.20;;;;;;4952235;28;98612;-73
2022/01/30 08:27:05;;;;;;;14.20;4.03;;;17.00;52.20;;;;;;4949873;28;99128;-73
2022/01/30 08:29:32;;;;;;;15.98;4.32;;;17.00;52.20;;;;;;4950908;28;99017;-73
2022/01/30 08:31:58;;;;;;;14.43;4.30;;;17.00;52.20;;;;;;4951384;28;99033;-73
2022/01/30 08:34:24;;;;;;;16.65;4.20;;;17.00;52.20;;;;;;4950177;28;98690;-73
2022/01/30 08:36:51;;;;;;;14.38;4.53;;;16.90;52.20;;;;;;4950288;28;101966;-73
2022/01/30 08:39:17;;;;;;;17.67;4.43;;;16.90;52.10;;;;;;4949625;28;101695;-73
2022/01/30 08:41:43;;;;;;;15.00;4.22;;;16.90;52.10;;;;;;4950435;28;99157;-72
2022/01/30 08:44:09;;;;;;;17.23;4.50;;;16.90;52.20;;;;;;4949905;28;98974;-73
2022/01/30 08:46:35;;;;;;;15.60;4.85;;;16.90;52.10;;;;;;4950626;28;99614;-72
2022/01/30 08:49:00;;;;;;;16.08;4.75;;;16.90;52.20;;;;;;4950096;28;100319;-72
2022/01/30 08:51:26;;;;;;;14.05;4.45;;;16.90;52.00;;;;;;4961952;28;98915;-73
2022/01/30 08:53:52;;;;;;;15.30;4.25;;;16.80;52.00;;;;;;4989569;28;97842;-72
2022/01/30 08:56:21;;;;;;;16.05;4.90;;;16.80;51.90;;;;;;4989982;28;99302;-72
2022/01/30 08:58:51;;;;;;;16.20;4.60;;;16.80;51.90;;;;;;4989145;28;100617;-72
2022/01/30 09:01:17;;;;;;;16.00;4.18;;;16.80;51.90;;;;;;4988662;28;99677;-72
2022/01/30 09:03:45;;;;;;;16.10;4.20;;;16.80;51.90;;;;;;4989748;28;98699;-72
2022/01/30 09:06:11;;;;;;;18.38;4.50;;;16.80;51.80;;;;;;4989273;28;99968;-73
2022/01/30 09:08:37;;;;;;;15.50;4.55;;;16.80;51.70;;;;;;4989372;28;99327;-73
2022/01/30 09:11:02;;;;;;;14.80;4.45;;;16.80;51.70;;;;;;4989792;28;98672;-74
2022/01/30 09:13:28;;;;;;;13.18;3.95;;;16.80;51.80;;;;;;4989155;28;99056;-74
2022/01/30 09:15:58;;;;;;;16.42;4.30;;;16.80;51.80;;;;;;4989441;28;100132;-74
2022/01/30 09:18:25;;;;;;;17.73;4.35;;;16.80;51.70;;;;;;4988644;28;99354;-73
2022/01/30 09:20:51;;;;;;;15.38;4.38;;;16.80;51.70;;;;;;4989381;28;98631;-74
2022/01/30 09:23:17;;;;;;;12.77;4.00;;;16.80;51.70;;;;;;4988820;28;98658;-73
2022/01/30 09:25:43;;;;;;;14.38;4.18;;;16.80;51.70;;;;;;4987967;28;100862;-73
2022/01/30 09:28:09;;;;;;;13.52;3.75;;;16.80;51.70;;;;;;4988007;28;100635;-73
2022/01/30 09:30:35;;;;;;;14.43;4.45;;;16.80;51.70;;;;;;4990007;28;98921;-74
2022/01/30 09:33:00;;;;;;;13.65;4.32;;;16.80;51.50;;;;;;4988979;28;98650;-73
2022/01/30 09:35:26;;;;;;;11.88;4.03;;;16.70;51.50;;;;;;4988369;28;99098;-74
2022/01/30 09:37:52;;;;;;;14.82;4.60;;;16.80;51.50;;;;;;4987515;28;100125;-74
2022/01/30 09:40:18;;;;;;;16.77;4.97;;;16.70;51.50;;;;;;4989404;28;99427;-74
2022/01/30 09:42:45;;;;;;;14.35;4.65;;;16.70;51.40;;;;;;4990403;28;98299;-73
2022/01/30 09:45:13;;;;;;;13.60;4.30;;;16.70;51.50;;;;;;4986964;28;100168;-74
2022/01/30 09:47:40;;;;;;;14.30;4.18;;;16.70;51.40;;;;;;4989483;28;98993;-74
2022/01/30 09:50:08;;;;;;;18.85;4.53;;;16.70;51.40;;;;;;4988647;28;99405;-74
2022/01/30 09:52:33;;;;;;;19.33;5.03;;;16.70;51.50;;;;;;4989383;28;99266;-74
2022/01/30 09:54:59;;;;;;;15.13;4.22;;;16.70;51.50;;;;;;4988845;28;99247;-74
2022/01/30 09:57:25;;;;;;;13.65;4.00;;;16.70;51.40;;;;;;4988815;28;99984;-73
2022/01/30 09:59:54;;;;;;;14.45;4.68;;;16.70;51.40;;;;;;4989474;28;98549;-74
2022/01/30 10:02:25;;;;;;;19.30;5.13;;;16.70;52.50;;;;;;4989879;28;99051;-74
2022/01/30 10:04:51;;;;;;;16.17;4.90;;;16.70;51.50;;;;;;4988349;28;100341;-73
2022/01/30 10:07:20;;;;;;;14.52;4.38;;;16.70;51.50;;;;;;4989082;28;98935;-73
2022/01/30 10:09:48;;;;;;;15.10;4.38;;;16.70;51.30;;;;;;4988269;28;98608;-73
2022/01/30 10:12:20;;;;;;;15.48;4.35;;;16.80;51.40;;;;;;4988880;28;98579;-75
2022/01/30 10:15:11;;;;;;;18.17;4.45;;;16.80;51.70;;;;;;4988586;28;101087;-72
2022/01/30 10:18:03;;;;;;;18.35;4.20;;;16.80;51.60;;;;;;4988266;28;100017;-73
2022/01/30 10:20:35;;;;;;;15.13;4.63;;;16.90;51.70;;;;;;4987051;28;98931;-73
2022/01/30 10:23:08;;;;;;;10.18;3.70;;;16.90;51.60;;;;;;4991677;28;98486;-74
2022/01/30 10:25:36;;;;;;;15.97;4.47;;;17.00;51.50;;;;;;4993433;28;99865;-73
2022/01/30 10:28:16;;;;;;;12.15;3.95;;;17.20;51.50;;;;;;4991908;28;99512;-74
2022/01/30 10:30:51;;;;;;;9.07;3.40;;;17.30;51.20;;;;;;4990062;28;98983;-73
2022/01/30 10:33:20;;;;;;;15.30;4.15;;;17.40;50.90;;;;;;4990203;28;98188;-74
2022/01/30 10:35:56;;;;;;;13.55;4.55;;;17.60;50.80;;;;;;4971408;28;98999;-73
2022/01/30 10:38:36;;;;;;;10.63;4.15;;;17.70;50.60;;;;;;4988078;28;100083;-74
2022/01/30 10:41:13;;;;;;;13.13;4.07;;;17.80;50.30;;;;;;4988033;28;99360;-74
2022/01/30 10:43:53;;;;;;;12.07;3.58;;;17.90;50.10;;;;;;4986653;28;99117;-73
2022/01/30 10:46:29;;;;;;;12.05;3.78;;;18.00;49.90;;;;;;4988695;28;100597;-73
2022/01/30 10:49:06;;;;;;;11.13;3.40;;;18.10;49.80;;;;;;4987114;28;99875;-73
2022/01/30 10:51:32;;;;;;;10.77;3.78;;;18.20;49.60;;;;;;4987931;28;98808;-72
2022/01/30 10:54:04;;;;;;;13.45;3.97;;;18.20;49.50;;;;;;4987805;28;98712;-73
2022/01/30 10:56:31;;;;;;;13.93;4.13;;;18.20;49.40;;;;;;4987249;28;99160;-74
2022/01/30 10:59:05;;;;;;;12.98;3.80;;;18.20;49.50;;;;;;4988110;28;99559;-74
2022/01/30 11:01:30;;;;;;;11.77;3.47;;;18.20;49.40;;;;;;4988044;28;98620;-73
2022/01/30 11:04:00;;;;;;;12.23;3.80;;;18.20;49.40;;;;;;4988091;28;99108;-73
2022/01/30 11:06:36;;;;;;;14.23;4.22;;;18.20;49.50;;;;;;4987003;28;101562;-73
2022/01/30 11:09:14;;;;;;;14.30;4.00;;;18.20;49.30;;;;;;4987005;28;101685;-73
2022/01/30 11:11:46;;;;;;;10.70;3.92;;;18.20;49.40;;;;;;4989405;28;99258;-74
2022/01/30 11:19:23;;;;;;;13.00;4.13;;;18.20;49.50;;;;;;4987263;28;99466;-73
2022/01/30 11:21:53;;;;;;;11.95;3.70;;;18.20;49.50;;;;;;4989444;28;98583;-73
2022/01/30 11:24:23;;;;;;;11.38;3.47;;;18.30;49.60;;;;;;4970315;28;98216;-74
2022/01/30 11:26:48;;;;;;;12.90;4.03;;;18.30;49.40;;;;;;4987721;28;100692;-75
2022/01/30 11:29:16;;;;;;;12.70;4.00;;;18.30;49.50;;;;;;4987857;28;99197;-74
2022/01/30 11:31:43;;;;;;;13.25;3.85;;;18.30;49.40;;;;;;4987305;28;99831;-74
2022/01/30 11:34:08;;;;;;;12.43;4.18;;;18.30;49.40;;;;;;4987967;28;98983;-74
2022/01/30 11:36:40;;;;;;;10.07;3.72;;;18.40;49.40;;;;;;4989398;28;99604;-74
2022/01/30 11:39:07;;;;;;;12.75;3.83;;;18.40;49.20;;;;;;4988509;28;99994;-74
2022/01/30 11:41:34;;;;;;;12.90;4.03;;;18.50;49.20;;;;;;4988364;28;98614;-74
2022/01/30 11:44:18;;;;;;;10.13;3.72;;;18.50;49.20;;;;;;4990265;28;98772;-73
2022/01/30 11:46:55;;;;;;;14.35;4.38;;;18.50;49.00;;;;;;4988823;28;99156;-73
2022/01/30 11:49:21;;;;;;;12.88;3.97;;;18.60;48.90;;;;;;4989706;28;98694;-74
2022/01/30 11:51:54;;;;;;;12.73;3.92;;;18.60;48.90;;;;;;4988536;28;98534;-74
2022/01/30 11:54:40;;;;;;;14.18;5.03;;;18.60;48.80;;;;;;4989985;28;101124;-73
2022/01/30 11:57:21;;;;;;;13.38;4.00;;;18.60;48.90;;;;;;4989934;28;100392;-74
2022/01/30 11:59:56;;;;;;;12.85;4.05;;;18.60;48.80;;;;;;4990776;28;99873;-74
2022/01/30 12:02:27;;;;;;;13.93;4.13;;;18.60;48.80;;;;;;5000951;28;98994;-72
2022/01/30 12:04:57;;;;;;;13.90;3.88;;;18.60;48.80;;;;;;4998972;28;98963;-72
2022/01/30 12:07:40;;;;;;;11.07;4.03;;;18.60;49.00;;;;;;4995949;28;100887;-74
2022/01/30 12:10:21;;;;;;;10.45;3.63;;;18.50;48.90;;;;;;4999508;28;99163;-73
2022/01/30 12:13:01;;;;;;;14.93;4.28;;;18.50;49.10;;;;;;4998062;28;98611;-73
2022/01/30 12:15:46;;;;;;;13.25;3.92;;;18.50;49.10;;;;;;4995007;28;97999;-73
2022/01/30 12:18:36;;;;;;;12.63;4.35;;;18.50;49.20;;;;;;4994146;28;98970;-73
2022/01/30 12:21:11;;;;;;;17.25;4.13;;;18.40;49.30;;;;;;4988718;28;100196;-73
2022/01/30 12:23:39;;;;;;;33.63;5.43;;;18.40;49.30;;;;;;4991058;28;99450;-73
2022/01/30 12:26:10;;;;;;;66.15;6.18;;;18.30;49.40;;;;;;4990635;28;99097;-74
2022/01/30 12:29:05;;;;;;;41.25;6.20;;;18.30;49.60;;;;;;4990517;28;99565;-75
2022/01/30 12:31:34;;;;;;;32.92;4.90;;;18.30;49.60;;;;;;4972120;28;99646;-74
2022/01/30 12:34:16;;;;;;;31.35;5.93;;;18.20;49.70;;;;;;4990909;28;99057;-72
2022/01/30 12:36:54;;;;;;;36.42;5.70;;;18.20;49.80;;;;;;4990709;28;98759;-76
2022/01/30 12:39:22;;;;;;;27.00;5.50;;;18.20;50.00;;;;;;4989436;28;100305;-75
2022/01/30 12:41:49;;;;;;;46.45;6.53;;;18.10;50.60;;;;;;4990302;28;99494;-75
2022/01/30 12:44:23;;;;;;;27.48;5.25;;;18.20;51.20;;;;;;4990267;28;99124;-75
2022/01/30 12:46:51;;;;;;;28.02;5.18;;;18.10;51.60;;;;;;4990510;28;99028;-75
2022/01/30 12:49:21;;;;;;;23.17;4.97;;;18.10;51.90;;;;;;4989249;28;100379;-75
2022/01/30 12:51:57;;;;;;;22.42;5.35;;;18.10;52.10;;;;;;4989158;28;101178;-75
2022/01/30 12:54:36;;;;;;;26.30;5.38;;;18.10;52.20;;;;;;4990461;28;98639;-74
2022/01/30 12:57:02;;;;;;;28.40;5.45;;;18.10;52.10;;;;;;4989616;28;98495;-74
2022/01/30 12:59:27;;;;;;;26.73;5.35;;;18.10;52.10;;;;;;4988978;28;100206;-74
2022/01/30 13:02:06;;;;;;;37.17;6.32;;;18.10;52.40;;;;;;4990187;28;100425;-74
2022/01/30 13:04:31;;;;;;;39.92;5.30;;;18.10;52.30;;;;;;4990003;28;98858;-73
2022/01/30 13:06:57;;;;;;;65.07;6.88;;;18.00;52.20;;;;;;4990043;28;98157;-75
2022/01/30 13:09:30;;;;;;;60.25;6.18;;;18.00;52.50;;;;;;4988475;28;99233;-74
2022/01/30 13:12:10;;;;;;;49.08;6.50;;;18.00;52.90;;;;;;4989828;28;98988;-76
2022/01/30 13:14:38;;;;;;;64.03;7.25;;;18.10;53.10;;;;;;4989641;28;99972;-74
2022/01/30 13:17:05;;;;;;;42.80;5.47;;;18.00;53.30;;;;;;4989904;28;98966;-75
2022/01/30 13:19:35;;;;;;;52.53;6.00;;;18.10;53.50;;;;;;4989189;28;99895;-74
2022/01/30 13:22:07;;;;;;;42.42;6.03;;;18.00;53.40;;;;;;4989467;28;99029;-75
2022/01/30 13:24:34;;;;;;;42.25;5.75;;;18.00;53.00;;;;;;4989053;28;98654;-75
2022/01/30 13:27:08;;;;;;;34.58;5.85;;;18.00;53.00;;;;;;4971513;28;98692;-75
2022/01/30 13:29:36;;;;;;;40.75;5.88;;;18.00;52.90;;;;;;4989930;28;99591;-74
2022/01/30 13:32:08;;;;;;;34.40;5.45;;;18.00;52.80;;;;;;4988842;28;99955;-74
2022/01/30 13:34:34;;;;;;;34.45;5.35;;;17.90;53.00;;;;;;4988808;28;98917;-75
2022/01/30 13:37:01;;;;;;;27.27;5.38;;;17.90;52.70;;;;;;4989380;28;98852;-75
2022/01/30 13:39:38;;;;;;;37.30;5.60;;;17.90;52.60;;;;;;4988097;28;100923;-74
2022/01/30 13:47:59;;;;;;;29.20;5.28;;;17.80;52.40;;;;;;4964958;28;98614;-75
2022/01/30 13:50:46;;;;;;;26.85;4.75;;;17.80;52.20;;;;;;4989448;28;99051;-75
2022/01/30 13:53:18;;;;;;;31.15;5.60;;;17.80;52.10;;;;;;4989271;28;99497;-74
2022/01/30 13:56:01;;;;;;;26.98;5.20;;;17.80;52.00;;;;;;4993418;28;99113;-75
2022/01/30 13:58:46;;;;;;;29.47;6.20;;;17.80;52.00;;;;;;4996097;28;98040;-75
2022/01/30 14:01:25;;;;;;;26.67;5.28;;;17.80;51.80;;;;;;4990900;28;100643;-74
2022/01/30 14:04:10;;;;;;;28.52;4.95;;;17.70;51.80;;;;;;4988080;28;100125;-74
2022/01/30 14:06:38;;;;;;;22.63;5.32;;;17.70;51.60;;;;;;4988861;28;99687;-75
2022/01/30 14:09:12;;;;;;;20.60;4.75;;;17.70;51.70;;;;;;4988548;28;99374;-74
2022/01/30 14:11:39;;;;;;;23.60;5.10;;;17.70;51.50;;;;;;4988817;28;99822;-74
2022/01/30 14:14:13;;;;;;;24.27;5.28;;;17.70;51.60;;;;;;4990115;28;99059;-75
2022/01/30 14:16:48;;;;;;;21.40;5.18;;;17.70;51.50;;;;;;4989437;28;98658;-75
2022/01/30 14:19:21;;;;;;;18.42;4.50;;;17.60;51.40;;;;;;4990179;28;98560;-75
2022/01/30 14:21:50;;;;;;;21.17;5.30;;;17.60;51.30;;;;;;4988427;28;100944;-75
2022/01/30 14:24:21;;;;;;;23.50;5.43;;;17.60;51.30;;;;;;4988971;28;101696;-75
2022/01/30 14:26:47;;;;;;;24.60;5.45;;;17.60;51.20;;;;;;4988286;28;99014;-75
2022/01/30 14:29:20;;;;;;;23.98;4.60;;;17.60;51.20;;;;;;4987846;28;98580;-74
2022/01/30 14:31:52;;;;;;;22.90;4.95;;;17.50;51.20;;;;;;4987296;28;100465;-74
2022/01/30 14:34:18;;;;;;;19.08;4.93;;;17.50;51.10;;;;;;4987958;28;99737;-74
2022/01/30 14:36:45;;;;;;;14.27;4.53;;;17.50;51.20;;;;;;4989541;28;99126;-75
2022/01/30 14:39:12;;;;;;;21.70;5.05;;;17.50;51.10;;;;;;4988768;28;99009;-75
2022/01/30 14:41:39;;;;;;;19.52;5.05;;;17.50;51.00;;;;;;4987901;28;99982;-74
2022/01/30 14:44:05;;;;;;;16.85;4.93;;;17.50;51.10;;;;;;4988199;28;99107;-74
2022/01/30 14:46:30;;;;;;;20.50;4.97;;;17.50;51.00;;;;;;4987809;28;98594;-74
2022/01/30 14:48:56;;;;;;;21.83;5.10;;;17.40;50.90;;;;;;4988815;28;97856;-75
2022/01/30 14:51:21;;;;;;;19.00;5.10;;;17.40;50.80;;;;;;4987396;28;101360;-74
2022/01/30 14:53:48;;;;;;;17.95;4.45;;;17.40;50.80;;;;;;4988630;28;99594;-74
2022/01/30 14:56:14;;;;;;;16.42;4.63;;;17.40;50.80;;;;;;4988221;28;99398;-75
2022/01/30 14:58:39;;;;;;;17.98;4.53;;;17.40;50.80;;;;;;4988266;28;98502;-75
2022/01/30 15:01:05;;;;;;;21.27;5.00;;;17.40;50.90;;;;;;4987837;28;99387;-74
2022/01/30 15:03:33;;;;;;;19.52;5.45;;;17.30;50.80;;;;;;4988462;28;99078;-74
2022/01/30 15:06:00;;;;;;;21.48;5.10;;;17.30;50.90;;;;;;4988670;28;99119;-74
2022/01/30 15:08:26;;;;;;;16.55;4.47;;;17.30;50.90;;;;;;4988842;28;99058;-74
2022/01/30 15:10:51;;;;;;;21.50;5.20;;;17.30;51.00;;;;;;4987313;28;99322;-75
2022/01/30 15:13:20;;;;;;;16.80;4.97;;;17.30;51.00;;;;;;4987625;28;98844;-74
2022/01/30 15:15:46;;;;;;;16.35;5.00;;;17.20;50.90;;;;;;4987795;28;99252;-74
2022/01/30 15:18:20;;;;;;;19.17;5.63;;;17.20;50.90;;;;;;4987570;28;98618;-74
2022/01/30 15:20:47;;;;;;;17.20;4.95;;;17.20;50.90;;;;;;4986350;28;101835;-75
2022/01/30 15:23:13;;;;;;;19.05;4.80;;;17.10;51.00;;;;;;4987614;28;99518;-73
2022/01/30 15:25:38;;;;;;;13.73;4.80;;;17.10;50.90;;;;;;4987703;28;99099;-74
2022/01/30 15:28:05;;;;;;;16.30;4.30;;;17.10;51.00;;;;;;4988912;28;98956;-75